sensor_id;sensor_type;location;lat;lon;timestamp;P1;durP1;ratioP1;P2;durP2;ratioP2
75628;SDS011;64213;46.452;16.994;2023-12-07T00:00:59;35.97;;;13.48;;
75628;SDS011;64213;46.452;16.994;2023-12-07T00:04:03;38.17;;;16.37;;
75628;SDS011;64213;46.452;16.994;2023-12-07T00:07:06;30.48;;;13.62;;
75628;SDS011;64213;46.452;16.994;2023-12-07T00:10:09;27.05;;;14.20;;
75628;SDS011;64213;46.452;16.994;2023-12-07T00:13:12;32.85;;;14.98;;
75628;SDS011;64213;46.452;16.994;2023-12-07T00:16:14;30.80;;;14.30;;
75628;SDS011;64213;46.452;16.994;2023-12-07T00:19:17;29.93;;;14.20;;
75628;SDS011;64213;46.452;16.994;2023-12-07T00:22:20;30.62;;;14.63;;
75628;SDS011;64213;46.452;16.994;2023-12-07T00:25:23;27.20;;;13.95;;
75628;SDS011;64213;46.452;16.994;2023-12-07T00:28:25;30.10;;;12.02;;
75628;SDS011;64213;46.452;16.994;2023-12-07T00:31:28;31.83;;;13.77;;
75628;SDS011;64213;46.452;16.994;2023-12-07T00:34:31;26.60;;;13.60;;
75628;SDS011;64213;46.452;16.994;2023-12-07T00:37:33;28.23;;;12.30;;
75628;SDS011;64213;46.452;16.994;2023-12-07T00:40:36;28.65;;;13.30;;
75628;SDS011;64213;46.452;16.994;2023-12-07T00:43:42;34.63;;;14.52;;
75628;SDS011;64213;46.452;16.994;2023-12-07T00:46:44;37.60;;;16.83;;
75628;SDS011;64213;46.452;16.994;2023-12-07T00:49:47;35.20;;;15.10;;
75628;SDS011;64213;46.452;16.994;2023-12-07T00:52:50;30.52;;;12.52;;
75628;SDS011;64213;46.452;16.994;2023-12-07T00:55:52;30.37;;;12.65;;
75628;SDS011;64213;46.452;16.994;2023-12-07T00:58:55;35.47;;;14.75;;
75628;SDS011;64213;46.452;16.994;2023-12-07T01:01:57;34.15;;;14.15;;
75628;SDS011;64213;46.452;16.994;2023-12-07T01:05:00;33.40;;;13.23;;
75628;SDS011;64213;46.452;16.994;2023-12-07T01:08:03;32.70;;;15.07;;
75628;SDS011;64213;46.452;16.994;2023-12-07T01:11:05;31.40;;;14.27;;
75628;SDS011;64213;46.452;16.994;2023-12-07T01:14:08;30.55;;;13.82;;
75628;SDS011;64213;46.452;16.994;2023-12-07T01:17:10;28.77;;;12.70;;
75628;SDS011;64213;46.452;16.994;2023-12-07T01:20:13;31.20;;;13.50;;
75628;SDS011;64213;46.452;16.994;2023-12-07T01:23:15;31.00;;;10.90;;
75628;SDS011;64213;46.452;16.994;2023-12-07T01:26:18;32.45;;;14.52;;
75628;SDS011;64213;46.452;16.994;2023-12-07T01:29:20;31.95;;;14.20;;
75628;SDS011;64213;46.452;16.994;2023-12-07T01:32:25;35.50;;;14.43;;
75628;SDS011;64213;46.452;16.994;2023-12-07T01:35:42;29.23;;;12.33;;
75628;SDS011;64213;46.452;16.994;2023-12-07T01:38:45;33.53;;;14.68;;
75628;SDS011;64213;46.452;16.994;2023-12-07T01:41:48;29.90;;;12.88;;
75628;SDS011;64213;46.452;16.994;2023-12-07T01:44:50;41.35;;;14.93;;
75628;SDS011;64213;46.452;16.994;2023-12-07T01:47:52;31.83;;;14.52;;
75628;SDS011;64213;46.452;16.994;2023-12-07T01:50:57;28.27;;;13.17;;
75628;SDS011;64213;46.452;16.994;2023-12-07T01:54:00;26.67;;;12.63;;
75628;SDS011;64213;46.452;16.994;2023-12-07T01:57:03;35.28;;;14.25;;
75628;SDS011;64213;46.452;16.994;2023-12-07T02:00:06;35.60;;;14.77;;
75628;SDS011;64213;46.452;16.994;2023-12-07T02:03:10;35.55;;;15.35;;
75628;SDS011;64213;46.452;16.994;2023-12-07T02:06:13;30.53;;;13.40;;
75628;SDS011;64213;46.452;16.994;2023-12-07T02:09:16;37.38;;;14.70;;
75628;SDS011;64213;46.452;16.994;2023-12-07T02:12:21;31.90;;;13.98;;
75628;SDS011;64213;46.452;16.994;2023-12-07T02:15:24;59.53;;;13.65;;
75628;SDS011;64213;46.452;16.994;2023-12-07T02:18:35;55.42;;;13.68;;
75628;SDS011;64213;46.452;16.994;2023-12-07T02:22:05;64.80;;;14.33;;
75628;SDS011;64213;46.452;16.994;2023-12-07T02:25:13;43.20;;;13.68;;
75628;SDS011;64213;46.452;16.994;2023-12-07T02:28:16;37.05;;;12.65;;
75628;SDS011;64213;46.452;16.994;2023-12-07T02:31:19;36.40;;;15.18;;
75628;SDS011;64213;46.452;16.994;2023-12-07T02:34:22;36.35;;;10.98;;
75628;SDS011;64213;46.452;16.994;2023-12-07T02:37:24;22.17;;;6.93;;
75628;SDS011;64213;46.452;16.994;2023-12-07T02:40:30;32.90;;;14.80;;
75628;SDS011;64213;46.452;16.994;2023-12-07T02:43:34;25.70;;;11.55;;
75628;SDS011;64213;46.452;16.994;2023-12-07T02:46:37;20.73;;;10.82;;
75628;SDS011;64213;46.452;16.994;2023-12-07T02:49:39;29.25;;;14.13;;
75628;SDS011;64213;46.452;16.994;2023-12-07T02:52:42;26.03;;;14.80;;
75628;SDS011;64213;46.452;16.994;2023-12-07T02:55:45;31.33;;;13.80;;
75628;SDS011;64213;46.452;16.994;2023-12-07T02:58:47;32.30;;;14.52;;
75628;SDS011;64213;46.452;16.994;2023-12-07T03:01:50;30.90;;;12.75;;
75628;SDS011;64213;46.452;16.994;2023-12-07T03:04:52;25.10;;;12.63;;
75628;SDS011;64213;46.452;16.994;2023-12-07T03:07:55;31.63;;;14.23;;
75628;SDS011;64213;46.452;16.994;2023-12-07T03:10:57;26.58;;;11.95;;
75628;SDS011;64213;46.452;16.994;2023-12-07T03:14:00;30.40;;;13.02;;
75628;SDS011;64213;46.452;16.994;2023-12-07T03:17:02;23.67;;;13.00;;
75628;SDS011;64213;46.452;16.994;2023-12-07T03:20:04;28.05;;;14.25;;
75628;SDS011;64213;46.452;16.994;2023-12-07T03:23:07;17.20;;;8.63;;
75628;SDS011;64213;46.452;16.994;2023-12-07T03:26:10;30.37;;;13.40;;
75628;SDS011;64213;46.452;16.994;2023-12-07T03:29:12;36.53;;;15.45;;
75628;SDS011;64213;46.452;16.994;2023-12-07T03:32:15;36.80;;;17.25;;
75628;SDS011;64213;46.452;16.994;2023-12-07T03:35:17;34.22;;;14.77;;
75628;SDS011;64213;46.452;16.994;2023-12-07T03:38:20;29.03;;;12.87;;
75628;SDS011;64213;46.452;16.994;2023-12-07T03:41:22;30.75;;;12.85;;
75628;SDS011;64213;46.452;16.994;2023-12-07T03:44:25;32.15;;;13.00;;
75628;SDS011;64213;46.452;16.994;2023-12-07T03:47:28;34.15;;;14.93;;
75628;SDS011;64213;46.452;16.994;2023-12-07T03:50:31;17.48;;;8.23;;
75628;SDS011;64213;46.452;16.994;2023-12-07T03:53:33;27.67;;;13.33;;
75628;SDS011;64213;46.452;16.994;2023-12-07T03:56:36;27.58;;;12.05;;
75628;SDS011;64213;46.452;16.994;2023-12-07T03:59:38;39.35;;;15.95;;
75628;SDS011;64213;46.452;16.994;2023-12-07T04:02:41;33.00;;;14.70;;
75628;SDS011;64213;46.452;16.994;2023-12-07T04:05:43;30.37;;;14.68;;
75628;SDS011;64213;46.452;16.994;2023-12-07T04:08:46;31.27;;;14.33;;
75628;SDS011;64213;46.452;16.994;2023-12-07T04:11:49;32.20;;;13.82;;
75628;SDS011;64213;46.452;16.994;2023-12-07T04:14:52;32.38;;;14.52;;
75628;SDS011;64213;46.452;16.994;2023-12-07T04:17:55;31.00;;;13.98;;
75628;SDS011;64213;46.452;16.994;2023-12-07T04:20:57;26.23;;;12.85;;
75628;SDS011;64213;46.452;16.994;2023-12-07T04:24:00;39.30;;;14.97;;
75628;SDS011;64213;46.452;16.994;2023-12-07T04:27:02;42.55;;;16.00;;
75628;SDS011;64213;46.452;16.994;2023-12-07T04:30:05;43.85;;;16.58;;
75628;SDS011;64213;46.452;16.994;2023-12-07T04:33:08;30.95;;;14.32;;
75628;SDS011;64213;46.452;16.994;2023-12-07T04:36:11;36.22;;;16.90;;
75628;SDS011;64213;46.452;16.994;2023-12-07T04:39:14;31.37;;;12.77;;
75628;SDS011;64213;46.452;16.994;2023-12-07T04:42:16;33.75;;;16.17;;
75628;SDS011;64213;46.452;16.994;2023-12-07T04:45:19;26.10;;;13.27;;
75628;SDS011;64213;46.452;16.994;2023-12-07T04:48:21;31.37;;;14.25;;
75628;SDS011;64213;46.452;16.994;2023-12-07T04:51:24;34.13;;;15.27;;
75628;SDS011;64213;46.452;16.994;2023-12-07T04:54:26;33.77;;;16.67;;
75628;SDS011;64213;46.452;16.994;2023-12-07T04:57:29;30.08;;;14.87;;
75628;SDS011;64213;46.452;16.994;2023-12-07T05:00:32;25.77;;;13.50;;
75628;SDS011;64213;46.452;16.994;2023-12-07T05:03:34;39.03;;;18.33;;
75628;SDS011;64213;46.452;16.994;2023-12-07T05:06:37;31.00;;;13.27;;
75628;SDS011;64213;46.452;16.994;2023-12-07T05:09:39;35.37;;;18.10;;
75628;SDS011;64213;46.452;16.994;2023-12-07T05:12:42;40.63;;;19.60;;
75628;SDS011;64213;46.452;16.994;2023-12-07T05:15:44;38.42;;;17.50;;
75628;SDS011;64213;46.452;16.994;2023-12-07T05:18:49;35.35;;;16.02;;
75628;SDS011;64213;46.452;16.994;2023-12-07T05:21:51;40.85;;;18.70;;
75628;SDS011;64213;46.452;16.994;2023-12-07T05:24:54;43.70;;;18.37;;
75628;SDS011;64213;46.452;16.994;2023-12-07T05:27:57;47.00;;;18.30;;
75628;SDS011;64213;46.452;16.994;2023-12-07T05:30:59;22.65;;;12.23;;
75628;SDS011;64213;46.452;16.994;2023-12-07T05:34:02;23.90;;;11.93;;
75628;SDS011;64213;46.452;16.994;2023-12-07T05:37:05;33.22;;;15.85;;
75628;SDS011;64213;46.452;16.994;2023-12-07T05:40:08;26.20;;;14.87;;
75628;SDS011;64213;46.452;16.994;2023-12-07T05:43:11;41.27;;;18.30;;
75628;SDS011;64213;46.452;16.994;2023-12-07T05:46:14;43.55;;;18.50;;
75628;SDS011;64213;46.452;16.994;2023-12-07T05:49:17;34.30;;;16.75;;
75628;SDS011;64213;46.452;16.994;2023-12-07T05:52:20;34.03;;;17.80;;
75628;SDS011;64213;46.452;16.994;2023-12-07T05:55:23;48.20;;;20.13;;
75628;SDS011;64213;46.452;16.994;2023-12-07T05:58:26;44.05;;;20.17;;
75628;SDS011;64213;46.452;16.994;2023-12-07T06:01:28;49.95;;;21.75;;
75628;SDS011;64213;46.452;16.994;2023-12-07T06:04:31;52.38;;;22.08;;
75628;SDS011;64213;46.452;16.994;2023-12-07T06:07:33;40.88;;;19.20;;
75628;SDS011;64213;46.452;16.994;2023-12-07T06:10:36;49.50;;;21.00;;
75628;SDS011;64213;46.452;16.994;2023-12-07T06:13:39;38.27;;;16.77;;
75628;SDS011;64213;46.452;16.994;2023-12-07T06:16:41;30.48;;;14.13;;
75628;SDS011;64213;46.452;16.994;2023-12-07T06:19:43;35.17;;;16.67;;
75628;SDS011;64213;46.452;16.994;2023-12-07T06:22:46;32.00;;;15.48;;
75628;SDS011;64213;46.452;16.994;2023-12-07T06:25:48;19.37;;;10.30;;
75628;SDS011;64213;46.452;16.994;2023-12-07T06:28:51;36.53;;;17.27;;
75628;SDS011;64213;46.452;16.994;2023-12-07T06:31:54;42.03;;;19.50;;
75628;SDS011;64213;46.452;16.994;2023-12-07T06:34:57;37.53;;;19.23;;
75628;SDS011;64213;46.452;16.994;2023-12-07T06:37:59;31.67;;;14.50;;
75628;SDS011;64213;46.452;16.994;2023-12-07T06:41:02;47.20;;;20.67;;
75628;SDS011;64213;46.452;16.994;2023-12-07T06:44:05;26.37;;;11.27;;
75628;SDS011;64213;46.452;16.994;2023-12-07T06:47:09;44.47;;;20.33;;
75628;SDS011;64213;46.452;16.994;2023-12-07T06:50:11;19.55;;;7.65;;
75628;SDS011;64213;46.452;16.994;2023-12-07T06:53:15;34.10;;;16.40;;
75628;SDS011;64213;46.452;16.994;2023-12-07T06:56:18;41.90;;;18.90;;
75628;SDS011;64213;46.452;16.994;2023-12-07T06:59:20;37.13;;;16.67;;
75628;SDS011;64213;46.452;16.994;2023-12-07T07:02:23;29.08;;;12.55;;
75628;SDS011;64213;46.452;16.994;2023-12-07T07:05:26;40.20;;;18.90;;
75628;SDS011;64213;46.452;16.994;2023-12-07T07:08:29;40.17;;;17.42;;
75628;SDS011;64213;46.452;16.994;2023-12-07T07:11:31;37.00;;;17.60;;
75628;SDS011;64213;46.452;16.994;2023-12-07T07:14:34;39.05;;;15.88;;
75628;SDS011;64213;46.452;16.994;2023-12-07T07:17:36;37.88;;;18.10;;
75628;SDS011;64213;46.452;16.994;2023-12-07T07:20:39;38.63;;;19.35;;
75628;SDS011;64213;46.452;16.994;2023-12-07T07:23:41;38.15;;;17.70;;
75628;SDS011;64213;46.452;16.994;2023-12-07T07:26:45;42.13;;;18.10;;
75628;SDS011;64213;46.452;16.994;2023-12-07T07:29:47;33.30;;;14.38;;
75628;SDS011;64213;46.452;16.994;2023-12-07T07:32:49;33.97;;;17.00;;
75628;SDS011;64213;46.452;16.994;2023-12-07T07:35:52;29.30;;;15.27;;
75628;SDS011;64213;46.452;16.994;2023-12-07T07:38:57;37.72;;;16.33;;
75628;SDS011;64213;46.452;16.994;2023-12-07T07:42:00;38.10;;;17.97;;
75628;SDS011;64213;46.452;16.994;2023-12-07T07:45:03;32.72;;;16.27;;
75628;SDS011;64213;46.452;16.994;2023-12-07T07:48:06;34.17;;;15.85;;
75628;SDS011;64213;46.452;16.994;2023-12-07T07:51:08;33.53;;;16.52;;
75628;SDS011;64213;46.452;16.994;2023-12-07T07:54:10;33.40;;;13.93;;
75628;SDS011;64213;46.452;16.994;2023-12-07T07:57:13;18.07;;;7.90;;
75628;SDS011;64213;46.452;16.994;2023-12-07T08:00:16;31.07;;;14.97;;
75628;SDS011;64213;46.452;16.994;2023-12-07T08:03:19;39.55;;;16.92;;
75628;SDS011;64213;46.452;16.994;2023-12-07T08:06:22;43.28;;;17.17;;
75628;SDS011;64213;46.452;16.994;2023-12-07T08:09:24;38.15;;;15.68;;
75628;SDS011;64213;46.452;16.994;2023-12-07T08:12:27;31.73;;;14.83;;
75628;SDS011;64213;46.452;16.994;2023-12-07T08:15:30;27.65;;;15.15;;
75628;SDS011;64213;46.452;16.994;2023-12-07T08:18:32;21.73;;;10.02;;
75628;SDS011;64213;46.452;16.994;2023-12-07T08:21:35;39.35;;;17.83;;
75628;SDS011;64213;46.452;16.994;2023-12-07T08:24:40;32.05;;;15.23;;
75628;SDS011;64213;46.452;16.994;2023-12-07T08:27:43;22.60;;;11.37;;
75628;SDS011;64213;46.452;16.994;2023-12-07T08:30:48;27.97;;;13.33;;
75628;SDS011;64213;46.452;16.994;2023-12-07T08:33:51;16.10;;;7.90;;
75628;SDS011;64213;46.452;16.994;2023-12-07T08:36:53;35.10;;;17.42;;
75628;SDS011;64213;46.452;16.994;2023-12-07T08:39:56;33.05;;;15.40;;
75628;SDS011;64213;46.452;16.994;2023-12-07T08:42:58;34.27;;;17.27;;
75628;SDS011;64213;46.452;16.994;2023-12-07T08:46:01;32.30;;;14.03;;
75628;SDS011;64213;46.452;16.994;2023-12-07T08:49:03;36.00;;;15.60;;
75628;SDS011;64213;46.452;16.994;2023-12-07T08:52:06;32.80;;;14.95;;
75628;SDS011;64213;46.452;16.994;2023-12-07T08:55:12;35.15;;;14.27;;
75628;SDS011;64213;46.452;16.994;2023-12-07T08:58:17;21.07;;;10.27;;
75628;SDS011;64213;46.452;16.994;2023-12-07T09:01:20;25.83;;;13.43;;
75628;SDS011;64213;46.452;16.994;2023-12-07T09:04:33;29.63;;;13.93;;
75628;SDS011;64213;46.452;16.994;2023-12-07T09:07:36;32.55;;;16.65;;
75628;SDS011;64213;46.452;16.994;2023-12-07T09:10:38;19.60;;;10.68;;
75628;SDS011;64213;46.452;16.994;2023-12-07T09:13:41;30.23;;;13.10;;
75628;SDS011;64213;46.452;16.994;2023-12-07T09:16:43;30.13;;;14.60;;
75628;SDS011;64213;46.452;16.994;2023-12-07T09:19:47;31.65;;;15.15;;
75628;SDS011;64213;46.452;16.994;2023-12-07T09:22:49;37.80;;;17.48;;
75628;SDS011;64213;46.452;16.994;2023-12-07T09:25:52;28.90;;;15.07;;
75628;SDS011;64213;46.452;16.994;2023-12-07T09:28:54;24.67;;;11.20;;
75628;SDS011;64213;46.452;16.994;2023-12-07T09:31:56;28.03;;;14.47;;
75628;SDS011;64213;46.452;16.994;2023-12-07T09:34:58;28.98;;;13.23;;
75628;SDS011;64213;46.452;16.994;2023-12-07T09:38:01;31.33;;;15.57;;
75628;SDS011;64213;46.452;16.994;2023-12-07T09:41:04;28.42;;;12.70;;
75628;SDS011;64213;46.452;16.994;2023-12-07T09:44:06;31.97;;;16.80;;
75628;SDS011;64213;46.452;16.994;2023-12-07T09:47:09;29.30;;;13.67;;
75628;SDS011;64213;46.452;16.994;2023-12-07T09:50:15;29.60;;;14.02;;
75628;SDS011;64213;46.452;16.994;2023-12-07T09:53:24;21.40;;;9.60;;
75628;SDS011;64213;46.452;16.994;2023-12-07T09:56:26;23.48;;;11.00;;
75628;SDS011;64213;46.452;16.994;2023-12-07T09:59:29;25.13;;;11.90;;
75628;SDS011;64213;46.452;16.994;2023-12-07T10:02:31;33.17;;;15.37;;
75628;SDS011;64213;46.452;16.994;2023-12-07T10:05:34;28.40;;;14.30;;
75628;SDS011;64213;46.452;16.994;2023-12-07T10:08:36;28.10;;;14.30;;
75628;SDS011;64213;46.452;16.994;2023-12-07T10:11:39;30.88;;;14.65;;
75628;SDS011;64213;46.452;16.994;2023-12-07T10:14:42;29.73;;;13.80;;
75628;SDS011;64213;46.452;16.994;2023-12-07T10:20:59;26.65;;;13.45;;
75628;SDS011;64213;46.452;16.994;2023-12-07T10:24:01;16.30;;;8.73;;
75628;SDS011;64213;46.452;16.994;2023-12-07T10:27:05;23.12;;;12.48;;
75628;SDS011;64213;46.452;16.994;2023-12-07T10:30:09;28.83;;;13.10;;
75628;SDS011;64213;46.452;16.994;2023-12-07T10:33:13;27.67;;;13.20;;
75628;SDS011;64213;46.452;16.994;2023-12-07T10:36:16;25.62;;;12.45;;
75628;SDS011;64213;46.452;16.994;2023-12-07T10:39:18;22.20;;;9.50;;
75628;SDS011;64213;46.452;16.994;2023-12-07T10:42:31;23.60;;;11.27;;
75628;SDS011;64213;46.452;16.994;2023-12-07T10:45:35;18.60;;;8.97;;
75628;SDS011;64213;46.452;16.994;2023-12-07T10:48:41;26.40;;;12.03;;
75628;SDS011;64213;46.452;16.994;2023-12-07T10:52:00;17.62;;;7.57;;
75628;SDS011;64213;46.452;16.994;2023-12-07T10:58:09;25.30;;;13.13;;
75628;SDS011;64213;46.452;16.994;2023-12-07T11:01:14;26.03;;;12.87;;
75628;SDS011;64213;46.452;16.994;2023-12-07T11:04:19;25.77;;;12.13;;
75628;SDS011;64213;46.452;16.994;2023-12-07T11:07:24;24.17;;;11.70;;
75628;SDS011;64213;46.452;16.994;2023-12-07T11:13:44;24.65;;;11.60;;
75628;SDS011;64213;46.452;16.994;2023-12-07T11:16:54;24.20;;;12.17;;
75628;SDS011;64213;46.452;16.994;2023-12-07T11:19:58;22.47;;;11.70;;
75628;SDS011;64213;46.452;16.994;2023-12-07T11:23:01;26.05;;;11.88;;
75628;SDS011;64213;46.452;16.994;2023-12-07T11:26:06;23.50;;;10.95;;
75628;SDS011;64213;46.452;16.994;2023-12-07T11:29:08;23.75;;;10.27;;
75628;SDS011;64213;46.452;16.994;2023-12-07T11:32:14;21.47;;;10.87;;
75628;SDS011;64213;46.452;16.994;2023-12-07T11:35:26;21.37;;;9.90;;
75628;SDS011;64213;46.452;16.994;2023-12-07T11:38:29;22.13;;;10.38;;
75628;SDS011;64213;46.452;16.994;2023-12-07T11:41:35;17.37;;;7.53;;
75628;SDS011;64213;46.452;16.994;2023-12-07T11:44:47;23.38;;;11.52;;
75628;SDS011;64213;46.452;16.994;2023-12-07T11:51:29;21.73;;;10.43;;
75628;SDS011;64213;46.452;16.994;2023-12-07T11:54:32;21.65;;;10.32;;
75628;SDS011;64213;46.452;16.994;2023-12-07T11:57:34;19.85;;;9.77;;
75628;SDS011;64213;46.452;16.994;2023-12-07T12:00:36;16.73;;;7.70;;
75628;SDS011;64213;46.452;16.994;2023-12-07T12:03:39;9.77;;;3.67;;
75628;SDS011;64213;46.452;16.994;2023-12-07T12:06:45;7.00;;;1.60;;
75628;SDS011;64213;46.452;16.994;2023-12-07T12:09:48;5.80;;;1.67;;
75628;SDS011;64213;46.452;16.994;2023-12-07T12:12:50;8.52;;;2.58;;
75628;SDS011;64213;46.452;16.994;2023-12-07T12:15:53;4.60;;;1.05;;
75628;SDS011;64213;46.452;16.994;2023-12-07T12:18:58;8.30;;;2.50;;
75628;SDS011;64213;46.452;16.994;2023-12-07T12:22:01;6.00;;;1.60;;
75628;SDS011;64213;46.452;16.994;2023-12-07T12:25:07;7.45;;;1.98;;
75628;SDS011;64213;46.452;16.994;2023-12-07T12:28:10;5.22;;;1.55;;
75628;SDS011;64213;46.452;16.994;2023-12-07T12:31:13;7.00;;;1.98;;
75628;SDS011;64213;46.452;16.994;2023-12-07T12:34:16;7.57;;;2.03;;
75628;SDS011;64213;46.452;16.994;2023-12-07T12:37:19;8.83;;;2.50;;
75628;SDS011;64213;46.452;16.994;2023-12-07T12:40:22;7.43;;;2.05;;
75628;SDS011;64213;46.452;16.994;2023-12-07T12:43:25;7.20;;;2.03;;
75628;SDS011;64213;46.452;16.994;2023-12-07T12:46:28;7.45;;;1.83;;
75628;SDS011;64213;46.452;16.994;2023-12-07T12:49:40;8.10;;;2.43;;
75628;SDS011;64213;46.452;16.994;2023-12-07T12:52:46;9.90;;;2.70;;
75628;SDS011;64213;46.452;16.994;2023-12-07T12:55:49;8.60;;;2.20;;
75628;SDS011;64213;46.452;16.994;2023-12-07T12:58:52;9.57;;;3.00;;
75628;SDS011;64213;46.452;16.994;2023-12-07T13:02:04;8.43;;;2.60;;
75628;SDS011;64213;46.452;16.994;2023-12-07T13:05:08;8.17;;;2.70;;
75628;SDS011;64213;46.452;16.994;2023-12-07T13:08:11;7.27;;;1.97;;
75628;SDS011;64213;46.452;16.994;2023-12-07T13:11:16;6.10;;;1.70;;
75628;SDS011;64213;46.452;16.994;2023-12-07T13:14:20;7.30;;;2.33;;
75628;SDS011;64213;46.452;16.994;2023-12-07T13:17:22;9.00;;;2.17;;
75628;SDS011;64213;46.452;16.994;2023-12-07T13:20:26;5.93;;;1.40;;
75628;SDS011;64213;46.452;16.994;2023-12-07T13:23:29;5.97;;;1.30;;
75628;SDS011;64213;46.452;16.994;2023-12-07T13:26:32;6.70;;;1.80;;
75628;SDS011;64213;46.452;16.994;2023-12-07T13:29:34;5.85;;;1.52;;
75628;SDS011;64213;46.452;16.994;2023-12-07T13:32:38;7.32;;;1.85;;
75628;SDS011;64213;46.452;16.994;2023-12-07T13:35:40;8.97;;;2.60;;
75628;SDS011;64213;46.452;16.994;2023-12-07T13:38:43;5.73;;;1.90;;
75628;SDS011;64213;46.452;16.994;2023-12-07T13:41:46;5.12;;;1.33;;
75628;SDS011;64213;46.452;16.994;2023-12-07T13:44:51;5.20;;;1.58;;
75628;SDS011;64213;46.452;16.994;2023-12-07T13:47:59;5.28;;;1.20;;
75628;SDS011;64213;46.452;16.994;2023-12-07T13:51:02;6.97;;;2.07;;
75628;SDS011;64213;46.452;16.994;2023-12-07T13:54:06;8.43;;;2.27;;
75628;SDS011;64213;46.452;16.994;2023-12-07T13:57:29;5.93;;;1.55;;
75628;SDS011;64213;46.452;16.994;2023-12-07T14:00:32;9.77;;;2.80;;
75628;SDS011;64213;46.452;16.994;2023-12-07T14:03:36;8.98;;;2.53;;
75628;SDS011;64213;46.452;16.994;2023-12-07T14:06:39;3.27;;;0.80;;
75628;SDS011;64213;46.452;16.994;2023-12-07T14:09:42;7.87;;;2.13;;
75628;SDS011;64213;46.452;16.994;2023-12-07T14:12:58;11.55;;;3.20;;
75628;SDS011;64213;46.452;16.994;2023-12-07T14:16:01;8.63;;;2.90;;
75628;SDS011;64213;46.452;16.994;2023-12-07T14:19:17;7.70;;;2.35;;
75628;SDS011;64213;46.452;16.994;2023-12-07T14:22:20;5.17;;;1.50;;
75628;SDS011;64213;46.452;16.994;2023-12-07T14:25:23;9.07;;;3.37;;
75628;SDS011;64213;46.452;16.994;2023-12-07T14:28:26;10.18;;;3.33;;
75628;SDS011;64213;46.452;16.994;2023-12-07T14:31:32;11.45;;;3.70;;
75628;SDS011;64213;46.452;16.994;2023-12-07T14:34:35;7.72;;;2.60;;
75628;SDS011;64213;46.452;16.994;2023-12-07T14:37:39;9.33;;;3.30;;
75628;SDS011;64213;46.452;16.994;2023-12-07T14:40:43;11.23;;;3.53;;
75628;SDS011;64213;46.452;16.994;2023-12-07T14:43:45;9.57;;;3.17;;
75628;SDS011;64213;46.452;16.994;2023-12-07T14:46:48;9.77;;;3.22;;
75628;SDS011;64213;46.452;16.994;2023-12-07T14:49:50;12.10;;;4.32;;
75628;SDS011;64213;46.452;16.994;2023-12-07T14:52:53;9.13;;;3.40;;
75628;SDS011;64213;46.452;16.994;2023-12-07T14:55:55;7.67;;;2.50;;
75628;SDS011;64213;46.452;16.994;2023-12-07T14:59:00;11.32;;;3.65;;
75628;SDS011;64213;46.452;16.994;2023-12-07T15:02:03;11.32;;;3.78;;
75628;SDS011;64213;46.452;16.994;2023-12-07T15:05:06;12.82;;;3.83;;
75628;SDS011;64213;46.452;16.994;2023-12-07T15:08:17;10.43;;;3.67;;
75628;SDS011;64213;46.452;16.994;2023-12-07T15:11:21;11.23;;;3.60;;
75628;SDS011;64213;46.452;16.994;2023-12-07T15:14:23;10.65;;;3.60;;
75628;SDS011;64213;46.452;16.994;2023-12-07T15:17:38;11.65;;;3.55;;
75628;SDS011;64213;46.452;16.994;2023-12-07T15:20:41;11.02;;;3.83;;
75628;SDS011;64213;46.452;16.994;2023-12-07T15:23:44;13.97;;;4.13;;
75628;SDS011;64213;46.452;16.994;2023-12-07T15:26:47;12.00;;;3.93;;
75628;SDS011;64213;46.452;16.994;2023-12-07T15:29:50;13.73;;;4.25;;
75628;SDS011;64213;46.452;16.994;2023-12-07T15:32:52;14.80;;;5.18;;
75628;SDS011;64213;46.452;16.994;2023-12-07T15:35:54;13.65;;;5.00;;
75628;SDS011;64213;46.452;16.994;2023-12-07T15:38:58;14.00;;;4.87;;
75628;SDS011;64213;46.452;16.994;2023-12-07T15:42:01;16.60;;;6.33;;
75628;SDS011;64213;46.452;16.994;2023-12-07T15:45:05;24.95;;;11.77;;
75628;SDS011;64213;46.452;16.994;2023-12-07T15:48:12;16.10;;;6.05;;
75628;SDS011;64213;46.452;16.994;2023-12-07T15:51:15;22.83;;;8.32;;
75628;SDS011;64213;46.452;16.994;2023-12-07T15:54:17;17.87;;;7.43;;
75628;SDS011;64213;46.452;16.994;2023-12-07T15:57:35;18.93;;;7.20;;
75628;SDS011;64213;46.452;16.994;2023-12-07T16:00:38;17.40;;;6.03;;
75628;SDS011;64213;46.452;16.994;2023-12-07T16:03:41;16.65;;;5.68;;
75628;SDS011;64213;46.452;16.994;2023-12-07T16:06:49;16.52;;;5.57;;
75628;SDS011;64213;46.452;16.994;2023-12-07T16:09:52;15.77;;;5.00;;
75628;SDS011;64213;46.452;16.994;2023-12-07T16:12:56;14.60;;;4.93;;
75628;SDS011;64213;46.452;16.994;2023-12-07T16:15:59;13.35;;;4.68;;
75628;SDS011;64213;46.452;16.994;2023-12-07T16:19:01;12.55;;;4.53;;
75628;SDS011;64213;46.452;16.994;2023-12-07T16:22:04;13.57;;;5.20;;
75628;SDS011;64213;46.452;16.994;2023-12-07T16:25:08;19.57;;;8.00;;
75628;SDS011;64213;46.452;16.994;2023-12-07T16:28:10;22.17;;;8.03;;
75628;SDS011;64213;46.452;16.994;2023-12-07T16:31:13;22.85;;;9.35;;
75628;SDS011;64213;46.452;16.994;2023-12-07T16:34:16;24.90;;;10.25;;
75628;SDS011;64213;46.452;16.994;2023-12-07T16:37:24;21.33;;;8.10;;
75628;SDS011;64213;46.452;16.994;2023-12-07T16:40:30;18.77;;;8.20;;
75628;SDS011;64213;46.452;16.994;2023-12-07T16:43:32;17.73;;;7.67;;
75628;SDS011;64213;46.452;16.994;2023-12-07T16:46:35;16.12;;;6.60;;
75628;SDS011;64213;46.452;16.994;2023-12-07T16:49:37;17.65;;;7.60;;
75628;SDS011;64213;46.452;16.994;2023-12-07T16:52:41;21.67;;;7.00;;
75628;SDS011;64213;46.452;16.994;2023-12-07T16:55:56;16.23;;;6.77;;
75628;SDS011;64213;46.452;16.994;2023-12-07T16:58:58;17.70;;;5.97;;
75628;SDS011;64213;46.452;16.994;2023-12-07T17:02:01;17.90;;;6.18;;
75628;SDS011;64213;46.452;16.994;2023-12-07T17:05:05;13.27;;;4.65;;
75628;SDS011;64213;46.452;16.994;2023-12-07T17:08:08;15.75;;;6.93;;
75628;SDS011;64213;46.452;16.994;2023-12-07T17:11:11;13.17;;;5.50;;
75628;SDS011;64213;46.452;16.994;2023-12-07T17:14:14;17.93;;;6.07;;
75628;SDS011;64213;46.452;16.994;2023-12-07T17:17:16;16.27;;;6.12;;
75628;SDS011;64213;46.452;16.994;2023-12-07T17:20:18;16.87;;;6.72;;
75628;SDS011;64213;46.452;16.994;2023-12-07T17:23:21;18.12;;;7.43;;
75628;SDS011;64213;46.452;16.994;2023-12-07T17:26:23;25.50;;;11.40;;
75628;SDS011;64213;46.452;16.994;2023-12-07T17:29:33;21.30;;;8.67;;
75628;SDS011;64213;46.452;16.994;2023-12-07T17:32:36;18.87;;;8.73;;
75628;SDS011;64213;46.452;16.994;2023-12-07T17:35:39;20.27;;;9.10;;
75628;SDS011;64213;46.452;16.994;2023-12-07T17:38:41;22.45;;;8.98;;
75628;SDS011;64213;46.452;16.994;2023-12-07T17:41:45;22.90;;;9.37;;
75628;SDS011;64213;46.452;16.994;2023-12-07T17:44:50;25.87;;;10.30;;
75628;SDS011;64213;46.452;16.994;2023-12-07T17:47:52;25.52;;;10.23;;
75628;SDS011;64213;46.452;16.994;2023-12-07T17:50:55;23.52;;;9.80;;
75628;SDS011;64213;46.452;16.994;2023-12-07T17:53:57;20.50;;;9.55;;
75628;SDS011;64213;46.452;16.994;2023-12-07T17:57:01;18.67;;;7.90;;
75628;SDS011;64213;46.452;16.994;2023-12-07T18:00:05;28.23;;;12.70;;